sensor_id;sensor_type;location;lat;lon;timestamp;temperature;humidity
24730;DHT22;12832;52.392;13.066;2023-02-28T00:00:51;24.90;25.60
24730;DHT22;12832;52.392;13.066;2023-02-28T00:03:18;24.90;25.60
24730;DHT22;12832;52.392;13.066;2023-02-28T00:05:44;24.90;25.60
24730;DHT22;12832;52.392;13.066;2023-02-28T00:08:11;24.90;25.60
24730;DHT22;12832;52.392;13.066;2023-02-28T00:10:39;24.90;25.60
24730;DHT22;12832;52.392;13.066;2023-02-28T00:13:06;24.90;25.60
24730;DHT22;12832;52.392;13.066;2023-02-28T00:15:32;24.90;25.60
24730;DHT22;12832;52.392;13.066;2023-02-28T00:17:59;24.90;25.60
24730;DHT22;12832;52.392;13.066;2023-02-28T00:20:25;24.90;25.60
24730;DHT22;12832;52.392;13.066;2023-02-28T00:22:52;24.90;25.60
24730;DHT22;12832;52.392;13.066;2023-02-28T00:25:21;24.90;25.60
24730;DHT22;12832;52.392;13.066;2023-02-28T00:27:48;24.90;25.70
24730;DHT22;12832;52.392;13.066;2023-02-28T00:30:19;24.90;25.70
24730;DHT22;12832;52.392;13.066;2023-02-28T00:32:46;24.90;25.60
24730;DHT22;12832;52.392;13.066;2023-02-28T00:35:12;24.90;25.70
24730;DHT22;12832;52.392;13.066;2023-02-28T00:37:39;24.90;25.70
24730;DHT22;12832;52.392;13.066;2023-02-28T00:40:06;24.90;26.20
24730;DHT22;12832;52.392;13.066;2023-02-28T00:42:34;24.90;25.70
24730;DHT22;12832;52.392;13.066;2023-02-28T00:45:01;24.90;25.60
24730;DHT22;12832;52.392;13.066;2023-02-28T00:47:29;24.90;25.70
24730;DHT22;12832;52.392;13.066;2023-02-28T00:49:55;24.90;25.70
24730;DHT22;12832;52.392;13.066;2023-02-28T00:52:21;24.90;25.70
24730;DHT22;12832;52.392;13.066;2023-02-28T00:54:48;24.90;25.70
24730;DHT22;12832;52.392;13.066;2023-02-28T00:57:14;24.90;25.70
24730;DHT22;12832;52.392;13.066;2023-02-28T00:59:40;24.90;25.70
24730;DHT22;12832;52.392;13.066;2023-02-28T01:02:06;24.90;25.70
24730;DHT22;12832;52.392;13.066;2023-02-28T01:04:32;24.90;25.70
24730;DHT22;12832;52.392;13.066;2023-02-28T01:06:58;24.90;25.70
24730;DHT22;12832;52.392;13.066;2023-02-28T01:09:24;24.90;25.70
24730;DHT22;12832;52.392;13.066;2023-02-28T01:11:51;24.90;25.70
24730;DHT22;12832;52.392;13.066;2023-02-28T01:14:18;25.00;25.70
24730;DHT22;12832;52.392;13.066;2023-02-28T01:16:44;24.90;25.70
24730;DHT22;12832;52.392;13.066;2023-02-28T01:19:11;24.90;25.70
24730;DHT22;12832;52.392;13.066;2023-02-28T01:21:37;24.90;25.70
24730;DHT22;12832;52.392;13.066;2023-02-28T01:24:04;24.90;25.70
24730;DHT22;12832;52.392;13.066;2023-02-28T01:26:30;24.90;25.70
24730;DHT22;12832;52.392;13.066;2023-02-28T01:28:56;24.90;26.20
24730;DHT22;12832;52.392;13.066;2023-02-28T01:31:23;24.90;25.70
24730;DHT22;12832;52.392;13.066;2023-02-28T01:33:53;24.90;25.70
24730;DHT22;12832;52.392;13.066;2023-02-28T01:36:22;24.90;25.70
24730;DHT22;12832;52.392;13.066;2023-02-28T01:38:48;24.90;25.70
24730;DHT22;12832;52.392;13.066;2023-02-28T01:41:18;24.90;25.70
24730;DHT22;12832;52.392;13.066;2023-02-28T01:46:12;24.90;25.70
24730;DHT22;12832;52.392;13.066;2023-02-28T01:48:42;24.90;25.80
24730;DHT22;12832;52.392;13.066;2023-02-28T01:51:18;24.90;25.70
24730;DHT22;12832;52.392;13.066;2023-02-28T01:53:49;24.90;25.70
24730;DHT22;12832;52.392;13.066;2023-02-28T01:56:22;24.90;25.80
24730;DHT22;12832;52.392;13.066;2023-02-28T01:58:50;24.90;25.70
24730;DHT22;12832;52.392;13.066;2023-02-28T02:01:17;24.90;25.80
24730;DHT22;12832;52.392;13.066;2023-02-28T02:03:50;24.90;25.80
24730;DHT22;12832;52.392;13.066;2023-02-28T02:06:27;24.90;25.80
24730;DHT22;12832;52.392;13.066;2023-02-28T02:08:55;25.00;25.80
24730;DHT22;12832;52.392;13.066;2023-02-28T02:11:23;24.90;25.80
24730;DHT22;12832;52.392;13.066;2023-02-28T02:22:12;24.90;25.80
24730;DHT22;12832;52.392;13.066;2023-02-28T02:30:46;24.90;25.80
24730;DHT22;12832;52.392;13.066;2023-02-28T02:39:04;24.90;25.80
24730;DHT22;12832;52.392;13.066;2023-02-28T02:41:40;24.90;26.30
24730;DHT22;12832;52.392;13.066;2023-02-28T02:44:30;24.90;25.80
24730;DHT22;12832;52.392;13.066;2023-02-28T02:47:04;24.90;25.80
24730;DHT22;12832;52.392;13.066;2023-02-28T02:49:35;24.90;25.80
24730;DHT22;12832;52.392;13.066;2023-02-28T02:52:05;24.90;25.80
24730;DHT22;12832;52.392;13.066;2023-02-28T02:54:37;24.90;25.80
24730;DHT22;12832;52.392;13.066;2023-02-28T02:57:07;24.90;25.80
24730;DHT22;12832;52.392;13.066;2023-02-28T02:59:54;25.00;25.90
24730;DHT22;12832;52.392;13.066;2023-02-28T03:02:22;24.90;25.80
24730;DHT22;12832;52.392;13.066;2023-02-28T03:04:52;24.90;25.80
24730;DHT22;12832;52.392;13.066;2023-02-28T03:07:19;24.90;25.80
24730;DHT22;12832;52.392;13.066;2023-02-28T03:09:52;25.00;25.90
24730;DHT22;12832;52.392;13.066;2023-02-28T03:12:19;25.00;25.90
24730;DHT22;12832;52.392;13.066;2023-02-28T03:15:24;24.90;25.80
24730;DHT22;12832;52.392;13.066;2023-02-28T03:18:08;25.00;25.90
24730;DHT22;12832;52.392;13.066;2023-02-28T03:20:57;25.00;25.90
24730;DHT22;12832;52.392;13.066;2023-02-28T03:23:38;24.90;25.80
24730;DHT22;12832;52.392;13.066;2023-02-28T03:26:17;24.90;25.80
24730;DHT22;12832;52.392;13.066;2023-02-28T03:28:52;24.90;25.90
24730;DHT22;12832;52.392;13.066;2023-02-28T03:31:36;24.90;25.90
24730;DHT22;12832;52.392;13.066;2023-02-28T03:34:22;25.00;25.90
24730;DHT22;12832;52.392;13.066;2023-02-28T03:36:53;25.00;25.90
24730;DHT22;12832;52.392;13.066;2023-02-28T03:39:28;25.00;25.90
24730;DHT22;12832;52.392;13.066;2023-02-28T03:42:04;25.00;25.90
24730;DHT22;12832;52.392;13.066;2023-02-28T03:44:39;25.00;25.90
24730;DHT22;12832;52.392;13.066;2023-02-28T03:47:17;25.00;25.90
24730;DHT22;12832;52.392;13.066;2023-02-28T03:49:50;25.00;25.90
24730;DHT22;12832;52.392;13.066;2023-02-28T03:52:23;25.00;25.90
24730;DHT22;12832;52.392;13.066;2023-02-28T03:54:55;25.00;25.90
24730;DHT22;12832;52.392;13.066;2023-02-28T04:00:16;25.00;25.90
24730;DHT22;12832;52.392;13.066;2023-02-28T04:02:44;25.00;25.90
24730;DHT22;12832;52.392;13.066;2023-02-28T04:05:11;25.00;25.90
24730;DHT22;12832;52.392;13.066;2023-02-28T04:07:37;25.00;26.40
24730;DHT22;12832;52.392;13.066;2023-02-28T04:10:04;25.00;25.90
24730;DHT22;12832;52.392;13.066;2023-02-28T04:12:30;25.00;25.90
24730;DHT22;12832;52.392;13.066;2023-02-28T04:14:56;25.00;25.90
24730;DHT22;12832;52.392;13.066;2023-02-28T04:17:23;25.00;25.90
24730;DHT22;12832;52.392;13.066;2023-02-28T04:19:49;25.00;25.90
24730;DHT22;12832;52.392;13.066;2023-02-28T04:22:15;25.00;25.90
24730;DHT22;12832;52.392;13.066;2023-02-28T04:24:43;25.00;25.90
24730;DHT22;12832;52.392;13.066;2023-02-28T04:27:09;25.00;25.90
24730;DHT22;12832;52.392;13.066;2023-02-28T04:29:35;25.00;25.90
24730;DHT22;12832;52.392;13.066;2023-02-28T04:32:02;25.00;25.90
24730;DHT22;12832;52.392;13.066;2023-02-28T04:34:32;25.00;25.90
24730;DHT22;12832;52.392;13.066;2023-02-28T04:36:58;25.00;25.90
24730;DHT22;12832;52.392;13.066;2023-02-28T04:39:39;25.00;25.90
24730;DHT22;12832;52.392;13.066;2023-02-28T04:42:05;25.00;26.40
24730;DHT22;12832;52.392;13.066;2023-02-28T04:44:31;25.00;25.90
24730;DHT22;12832;52.392;13.066;2023-02-28T04:46:57;25.00;25.90
24730;DHT22;12832;52.392;13.066;2023-02-28T04:49:23;25.00;25.90
24730;DHT22;12832;52.392;13.066;2023-02-28T04:51:50;25.00;25.90
24730;DHT22;12832;52.392;13.066;2023-02-28T04:54:16;24.90;25.90
24730;DHT22;12832;52.392;13.066;2023-02-28T04:56:43;25.00;25.90
24730;DHT22;12832;52.392;13.066;2023-02-28T04:59:09;25.00;25.90
24730;DHT22;12832;52.392;13.066;2023-02-28T05:01:35;25.00;26.00
24730;DHT22;12832;52.392;13.066;2023-02-28T05:04:03;25.00;25.90
24730;DHT22;12832;52.392;13.066;2023-02-28T05:06:32;25.00;25.90
24730;DHT22;12832;52.392;13.066;2023-02-28T05:08:59;25.00;25.90
24730;DHT22;12832;52.392;13.066;2023-02-28T05:11:27;25.00;26.00
24730;DHT22;12832;52.392;13.066;2023-02-28T05:13:55;25.00;26.00
24730;DHT22;12832;52.392;13.066;2023-02-28T05:16:22;25.00;26.00
24730;DHT22;12832;52.392;13.066;2023-02-28T05:18:48;25.00;26.00
24730;DHT22;12832;52.392;13.066;2023-02-28T05:21:27;25.00;26.00
24730;DHT22;12832;52.392;13.066;2023-02-28T05:23:55;25.00;26.00
24730;DHT22;12832;52.392;13.066;2023-02-28T05:26:22;25.00;26.00
24730;DHT22;12832;52.392;13.066;2023-02-28T05:28:48;25.00;26.00
24730;DHT22;12832;52.392;13.066;2023-02-28T05:31:15;25.00;26.00
24730;DHT22;12832;52.392;13.066;2023-02-28T05:33:41;25.00;26.00
24730;DHT22;12832;52.392;13.066;2023-02-28T05:36:07;25.00;26.10
24730;DHT22;12832;52.392;13.066;2023-02-28T05:38:33;25.00;26.00
24730;DHT22;12832;52.392;13.066;2023-02-28T05:40:59;25.00;26.00
24730;DHT22;12832;52.392;13.066;2023-02-28T05:43:26;25.00;26.00
24730;DHT22;12832;52.392;13.066;2023-02-28T05:45:52;25.00;25.90
24730;DHT22;12832;52.392;13.066;2023-02-28T05:48:18;25.00;26.00
24730;DHT22;12832;52.392;13.066;2023-02-28T05:50:44;25.00;26.00
24730;DHT22;12832;52.392;13.066;2023-02-28T05:53:11;25.00;26.00
24730;DHT22;12832;52.392;13.066;2023-02-28T05:55:38;25.00;26.00
24730;DHT22;12832;52.392;13.066;2023-02-28T05:58:04;25.00;26.00
24730;DHT22;12832;52.392;13.066;2023-02-28T06:00:30;25.00;26.00
24730;DHT22;12832;52.392;13.066;2023-02-28T06:02:56;25.00;25.80
24730;DHT22;12832;52.392;13.066;2023-02-28T06:05:25;25.00;25.40
24730;DHT22;12832;52.392;13.066;2023-02-28T06:07:52;24.90;25.20
24730;DHT22;12832;52.392;13.066;2023-02-28T06:10:18;24.90;25.10
24730;DHT22;12832;52.392;13.066;2023-02-28T06:12:45;24.80;25.10
24730;DHT22;12832;52.392;13.066;2023-02-28T06:15:13;24.80;25.00
24730;DHT22;12832;52.392;13.066;2023-02-28T06:17:41;24.80;25.10
24730;DHT22;12832;52.392;13.066;2023-02-28T06:20:08;24.80;25.10
24730;DHT22;12832;52.392;13.066;2023-02-28T06:22:35;24.70;25.00
24730;DHT22;12832;52.392;13.066;2023-02-28T06:25:03;24.80;25.00
24730;DHT22;12832;52.392;13.066;2023-02-28T06:27:30;24.70;24.90
24730;DHT22;12832;52.392;13.066;2023-02-28T06:29:56;24.70;25.00
24730;DHT22;12832;52.392;13.066;2023-02-28T06:32:23;24.70;25.10
24730;DHT22;12832;52.392;13.066;2023-02-28T06:34:49;24.70;25.10
24730;DHT22;12832;52.392;13.066;2023-02-28T06:37:17;24.70;25.10
24730;DHT22;12832;52.392;13.066;2023-02-28T06:39:43;24.60;25.10
24730;DHT22;12832;52.392;13.066;2023-02-28T06:42:09;24.60;25.00
24730;DHT22;12832;52.392;13.066;2023-02-28T06:44:35;24.60;24.90
24730;DHT22;12832;52.392;13.066;2023-02-28T06:47:03;24.60;25.40
24730;DHT22;12832;52.392;13.066;2023-02-28T06:49:32;24.60;24.90
24730;DHT22;12832;52.392;13.066;2023-02-28T06:51:58;24.60;24.90
24730;DHT22;12832;52.392;13.066;2023-02-28T06:54:24;24.60;24.90
24730;DHT22;12832;52.392;13.066;2023-02-28T06:56:51;24.60;25.00
24730;DHT22;12832;52.392;13.066;2023-02-28T06:59:19;24.60;25.10
24730;DHT22;12832;52.392;13.066;2023-02-28T07:01:46;24.60;25.10
24730;DHT22;12832;52.392;13.066;2023-02-28T07:04:13;24.60;25.10
24730;DHT22;12832;52.392;13.066;2023-02-28T07:06:39;24.60;25.10
24730;DHT22;12832;52.392;13.066;2023-02-28T07:09:05;24.60;25.20
24730;DHT22;12832;52.392;13.066;2023-02-28T07:11:31;24.50;25.20
24730;DHT22;12832;52.392;13.066;2023-02-28T07:13:58;24.50;25.30
24730;DHT22;12832;52.392;13.066;2023-02-28T07:16:24;24.50;25.30
24730;DHT22;12832;52.392;13.066;2023-02-28T07:18:55;24.50;25.20
24730;DHT22;12832;52.392;13.066;2023-02-28T07:21:21;24.50;25.30
24730;DHT22;12832;52.392;13.066;2023-02-28T07:23:47;24.50;25.30
24730;DHT22;12832;52.392;13.066;2023-02-28T07:26:16;24.50;25.40
24730;DHT22;12832;52.392;13.066;2023-02-28T07:28:44;24.50;25.40
24730;DHT22;12832;52.392;13.066;2023-02-28T07:31:11;24.50;25.40
24730;DHT22;12832;52.392;13.066;2023-02-28T07:33:37;24.50;25.40
24730;DHT22;12832;52.392;13.066;2023-02-28T07:36:07;24.40;25.20
24730;DHT22;12832;52.392;13.066;2023-02-28T07:38:35;24.50;25.30
24730;DHT22;12832;52.392;13.066;2023-02-28T07:41:01;24.50;25.30
24730;DHT22;12832;52.392;13.066;2023-02-28T07:43:31;24.50;25.30
24730;DHT22;12832;52.392;13.066;2023-02-28T07:46:05;24.50;25.40
24730;DHT22;12832;52.392;13.066;2023-02-28T07:48:32;24.50;25.50
24730;DHT22;12832;52.392;13.066;2023-02-28T07:50:59;24.40;25.50
24730;DHT22;12832;52.392;13.066;2023-02-28T07:53:26;24.40;25.40
24730;DHT22;12832;52.392;13.066;2023-02-28T07:56:00;24.50;25.40
24730;DHT22;12832;52.392;13.066;2023-02-28T07:58:27;24.50;25.30
24730;DHT22;12832;52.392;13.066;2023-02-28T08:00:54;24.40;25.40
24730;DHT22;12832;52.392;13.066;2023-02-28T08:03:22;24.50;25.40
24730;DHT22;12832;52.392;13.066;2023-02-28T08:05:48;24.40;25.40
24730;DHT22;12832;52.392;13.066;2023-02-28T08:08:16;24.40;25.60
24730;DHT22;12832;52.392;13.066;2023-02-28T08:10:43;24.40;25.70
24730;DHT22;12832;52.392;13.066;2023-02-28T08:13:11;24.40;25.70
24730;DHT22;12832;52.392;13.066;2023-02-28T08:15:37;24.40;25.70
24730;DHT22;12832;52.392;13.066;2023-02-28T08:18:03;24.40;25.90
24730;DHT22;12832;52.392;13.066;2023-02-28T08:20:29;24.40;25.90
24730;DHT22;12832;52.392;13.066;2023-02-28T08:22:56;24.40;25.90
24730;DHT22;12832;52.392;13.066;2023-02-28T08:25:22;24.40;26.00
24730;DHT22;12832;52.392;13.066;2023-02-28T08:27:51;24.40;26.20
24730;DHT22;12832;52.392;13.066;2023-02-28T08:30:18;24.40;26.20
24730;DHT22;12832;52.392;13.066;2023-02-28T08:32:44;24.40;26.20
24730;DHT22;12832;52.392;13.066;2023-02-28T08:35:10;24.40;26.00
24730;DHT22;12832;52.392;13.066;2023-02-28T08:37:36;24.40;26.00
24730;DHT22;12832;52.392;13.066;2023-02-28T08:40:03;24.40;25.90
24730;DHT22;12832;52.392;13.066;2023-02-28T08:42:30;24.30;25.90
24730;DHT22;12832;52.392;13.066;2023-02-28T08:44:58;24.30;25.80
24730;DHT22;12832;52.392;13.066;2023-02-28T08:47:24;24.40;25.80
24730;DHT22;12832;52.392;13.066;2023-02-28T08:49:50;24.30;25.80
24730;DHT22;12832;52.392;13.066;2023-02-28T08:52:16;24.40;25.80
24730;DHT22;12832;52.392;13.066;2023-02-28T08:54:42;24.40;26.00
24730;DHT22;12832;52.392;13.066;2023-02-28T08:57:08;24.40;26.10
24730;DHT22;12832;52.392;13.066;2023-02-28T08:59:34;24.30;26.10
24730;DHT22;12832;52.392;13.066;2023-02-28T09:02:00;24.30;26.20
24730;DHT22;12832;52.392;13.066;2023-02-28T09:04:26;24.30;26.30
24730;DHT22;12832;52.392;13.066;2023-02-28T09:06:53;24.30;26.20
24730;DHT22;12832;52.392;13.066;2023-02-28T09:09:19;24.30;26.20
24730;DHT22;12832;52.392;13.066;2023-02-28T09:11:45;24.30;26.20
24730;DHT22;12832;52.392;13.066;2023-02-28T09:14:11;24.30;26.20
24730;DHT22;12832;52.392;13.066;2023-02-28T09:16:38;24.30;26.20
24730;DHT22;12832;52.392;13.066;2023-02-28T09:19:04;24.30;26.20
24730;DHT22;12832;52.392;13.066;2023-02-28T09:21:30;24.30;26.30
24730;DHT22;12832;52.392;13.066;2023-02-28T09:23:57;24.30;26.30
24730;DHT22;12832;52.392;13.066;2023-02-28T09:26:25;24.30;26.30
24730;DHT22;12832;52.392;13.066;2023-02-28T09:28:52;24.30;26.30
24730;DHT22;12832;52.392;13.066;2023-02-28T09:31:23;24.30;26.30
24730;DHT22;12832;52.392;13.066;2023-02-28T09:33:50;24.30;26.30
24730;DHT22;12832;52.392;13.066;2023-02-28T09:36:18;24.30;26.20
24730;DHT22;12832;52.392;13.066;2023-02-28T09:38:44;24.30;26.20
24730;DHT22;12832;52.392;13.066;2023-02-28T09:41:20;24.30;26.20
24730;DHT22;12832;52.392;13.066;2023-02-28T09:43:52;24.30;26.20
24730;DHT22;12832;52.392;13.066;2023-02-28T09:46:27;24.30;26.20
24730;DHT22;12832;52.392;13.066;2023-02-28T09:48:54;24.30;26.20
24730;DHT22;12832;52.392;13.066;2023-02-28T09:54:23;24.30;26.30
24730;DHT22;12832;52.392;13.066;2023-02-28T10:05:12;24.30;26.50
24730;DHT22;12832;52.392;13.066;2023-02-28T10:08:00;24.30;26.60
24730;DHT22;12832;52.392;13.066;2023-02-28T10:10:49;24.30;26.70
24730;DHT22;12832;52.392;13.066;2023-02-28T10:13:26;24.20;26.50
24730;DHT22;12832;52.392;13.066;2023-02-28T10:15:59;24.30;26.60
24730;DHT22;12832;52.392;13.066;2023-02-28T10:18:48;24.30;26.50
24730;DHT22;12832;52.392;13.066;2023-02-28T10:21:21;24.30;26.50
24730;DHT22;12832;52.392;13.066;2023-02-28T10:23:56;24.30;26.40
24730;DHT22;12832;52.392;13.066;2023-02-28T10:26:26;24.20;26.20
24730;DHT22;12832;52.392;13.066;2023-02-28T10:28:55;24.20;26.10
24730;DHT22;12832;52.392;13.066;2023-02-28T10:31:21;24.20;26.40
24730;DHT22;12832;52.392;13.066;2023-02-28T10:33:48;24.20;26.30
24730;DHT22;12832;52.392;13.066;2023-02-28T10:36:18;24.30;26.50
24730;DHT22;12832;52.392;13.066;2023-02-28T10:38:46;24.20;26.30
24730;DHT22;12832;52.392;13.066;2023-02-28T10:41:27;24.20;26.30
24730;DHT22;12832;52.392;13.066;2023-02-28T10:44:32;24.20;26.30
24730;DHT22;12832;52.392;13.066;2023-02-28T10:46:58;24.30;26.40
24730;DHT22;12832;52.392;13.066;2023-02-28T10:49:27;24.20;26.30
24730;DHT22;12832;52.392;13.066;2023-02-28T10:51:58;24.20;26.20
24730;DHT22;12832;52.392;13.066;2023-02-28T10:54:34;24.20;26.20
24730;DHT22;12832;52.392;13.066;2023-02-28T10:57:08;24.20;26.20
24730;DHT22;12832;52.392;13.066;2023-02-28T10:59:40;24.20;26.20
24730;DHT22;12832;52.392;13.066;2023-02-28T11:02:31;24.20;26.40
24730;DHT22;12832;52.392;13.066;2023-02-28T11:04:57;24.30;26.50
24730;DHT22;12832;52.392;13.066;2023-02-28T11:07:25;24.20;26.50
24730;DHT22;12832;52.392;13.066;2023-02-28T11:09:57;24.20;26.40
24730;DHT22;12832;52.392;13.066;2023-02-28T11:12:28;24.20;26.40
24730;DHT22;12832;52.392;13.066;2023-02-28T11:15:05;24.30;26.30
24730;DHT22;12832;52.392;13.066;2023-02-28T11:17:32;24.20;26.00
24730;DHT22;12832;52.392;13.066;2023-02-28T11:20:05;24.20;25.90
24730;DHT22;12832;52.392;13.066;2023-02-28T11:22:38;24.20;25.70
24730;DHT22;12832;52.392;13.066;2023-02-28T11:25:16;24.20;25.70
24730;DHT22;12832;52.392;13.066;2023-02-28T11:27:53;24.20;25.80
24730;DHT22;12832;52.392;13.066;2023-02-28T11:30:24;24.20;25.90
24730;DHT22;12832;52.392;13.066;2023-02-28T11:32:51;24.20;25.80
24730;DHT22;12832;52.392;13.066;2023-02-28T11:35:23;24.20;25.90
24730;DHT22;12832;52.392;13.066;2023-02-28T11:37:50;24.20;26.00
24730;DHT22;12832;52.392;13.066;2023-02-28T11:40:46;24.20;26.20
24730;DHT22;12832;52.392;13.066;2023-02-28T11:48:54;24.20;26.00
24730;DHT22;12832;52.392;13.066;2023-02-28T11:51:28;24.20;26.50
24730;DHT22;12832;52.392;13.066;2023-02-28T12:05:08;24.20;25.90
24730;DHT22;12832;52.392;13.066;2023-02-28T12:10:37;24.20;25.80
24730;DHT22;12832;52.392;13.066;2023-02-28T12:13:16;24.20;25.70
24730;DHT22;12832;52.392;13.066;2023-02-28T12:15:58;24.20;25.80
24730;DHT22;12832;52.392;13.066;2023-02-28T12:21:48;24.20;25.60
24730;DHT22;12832;52.392;13.066;2023-02-28T12:24:29;24.20;25.50
24730;DHT22;12832;52.392;13.066;2023-02-28T12:27:02;24.20;25.40
24730;DHT22;12832;52.392;13.066;2023-02-28T12:30:02;24.20;25.20
24730;DHT22;12832;52.392;13.066;2023-02-28T12:32:33;24.20;25.10
24730;DHT22;12832;52.392;13.066;2023-02-28T12:43:10;24.20;25.30
24730;DHT22;12832;52.392;13.066;2023-02-28T12:46:00;24.20;25.30
24730;DHT22;12832;52.392;13.066;2023-02-28T12:48:39;24.20;25.30
24730;DHT22;12832;52.392;13.066;2023-02-28T12:51:08;24.20;25.40
24730;DHT22;12832;52.392;13.066;2023-02-28T12:53:39;24.20;25.40
24730;DHT22;12832;52.392;13.066;2023-02-28T12:58:42;24.20;25.50
24730;DHT22;12832;52.392;13.066;2023-02-28T13:09:33;24.10;25.20
24730;DHT22;12832;52.392;13.066;2023-02-28T13:12:00;24.20;24.50
24730;DHT22;12832;52.392;13.066;2023-02-28T13:14:29;24.20;24.60
24730;DHT22;12832;52.392;13.066;2023-02-28T13:19:39;24.30;24.80
24730;DHT22;12832;52.392;13.066;2023-02-28T13:24:55;24.30;24.90
24730;DHT22;12832;52.392;13.066;2023-02-28T13:27:31;24.30;24.90
24730;DHT22;12832;52.392;13.066;2023-02-28T13:29:58;24.40;25.00
24730;DHT22;12832;52.392;13.066;2023-02-28T13:32:32;24.40;25.10
24730;DHT22;12832;52.392;13.066;2023-02-28T13:39:58;24.40;25.10
24730;DHT22;12832;52.392;13.066;2023-02-28T13:47:41;24.40;25.10
24730;DHT22;12832;52.392;13.066;2023-02-28T13:55:56;24.40;25.00
24730;DHT22;12832;52.392;13.066;2023-02-28T14:04:21;24.50;25.10
24730;DHT22;12832;52.392;13.066;2023-02-28T14:06:57;24.50;25.10
24730;DHT22;12832;52.392;13.066;2023-02-28T14:09:30;24.50;25.10
24730;DHT22;12832;52.392;13.066;2023-02-28T14:11:57;24.50;25.20
24730;DHT22;12832;52.392;13.066;2023-02-28T14:17:16;24.50;25.20
24730;DHT22;12832;52.392;13.066;2023-02-28T14:19:47;24.60;25.20
24730;DHT22;12832;52.392;13.066;2023-02-28T14:22:40;24.60;25.30
24730;DHT22;12832;52.392;13.066;2023-02-28T14:26:14;24.50;25.20
24730;DHT22;12832;52.392;13.066;2023-02-28T14:28:47;24.60;25.30
24730;DHT22;12832;52.392;13.066;2023-02-28T14:31:34;24.60;25.30
24730;DHT22;12832;52.392;13.066;2023-02-28T14:34:46;24.60;25.70
24730;DHT22;12832;52.392;13.066;2023-02-28T14:37:20;24.60;25.20
24730;DHT22;12832;52.392;13.066;2023-02-28T14:39:49;24.60;25.20
24730;DHT22;12832;52.392;13.066;2023-02-28T14:42:33;24.60;25.20
24730;DHT22;12832;52.392;13.066;2023-02-28T14:45:00;24.60;25.10
24730;DHT22;12832;52.392;13.066;2023-02-28T14:47:30;24.60;25.10
24730;DHT22;12832;52.392;13.066;2023-02-28T14:49:58;24.60;25.10
24730;DHT22;12832;52.392;13.066;2023-02-28T14:52:28;24.60;25.10
24730;DHT22;12832;52.392;13.066;2023-02-28T14:55:01;24.60;24.60
24730;DHT22;12832;52.392;13.066;2023-02-28T14:57:39;24.50;24.40
24730;DHT22;12832;52.392;13.066;2023-02-28T15:00:16;24.50;24.20
24730;DHT22;12832;52.392;13.066;2023-02-28T15:02:43;24.40;24.00
24730;DHT22;12832;52.392;13.066;2023-02-28T15:07:44;24.40;23.90
24730;DHT22;12832;52.392;13.066;2023-02-28T15:12:39;24.40;24.00
24730;DHT22;12832;52.392;13.066;2023-02-28T15:15:06;24.40;24.20
24730;DHT22;12832;52.392;13.066;2023-02-28T15:17:34;24.40;24.20
24730;DHT22;12832;52.392;13.066;2023-02-28T15:20:01;24.30;24.20
24730;DHT22;12832;52.392;13.066;2023-02-28T15:22:35;24.30;24.30
24730;DHT22;12832;52.392;13.066;2023-02-28T15:25:02;24.40;24.30
24730;DHT22;12832;52.392;13.066;2023-02-28T15:27:32;24.30;24.30
24730;DHT22;12832;52.392;13.066;2023-02-28T15:30:04;24.30;24.30
24730;DHT22;12832;52.392;13.066;2023-02-28T15:32:35;24.30;24.30
24730;DHT22;12832;52.392;13.066;2023-02-28T15:35:27;24.30;24.30
24730;DHT22;12832;52.392;13.066;2023-02-28T15:37:55;24.30;24.30
24730;DHT22;12832;52.392;13.066;2023-02-28T15:40:31;24.30;24.30
24730;DHT22;12832;52.392;13.066;2023-02-28T15:43:24;24.30;24.40
24730;DHT22;12832;52.392;13.066;2023-02-28T15:46:12;24.30;24.40
24730;DHT22;12832;52.392;13.066;2023-02-28T15:48:52;24.20;24.40
24730;DHT22;12832;52.392;13.066;2023-02-28T15:51:23;24.20;24.50
24730;DHT22;12832;52.392;13.066;2023-02-28T15:56:30;24.20;24.50
24730;DHT22;12832;52.392;13.066;2023-02-28T15:59:03;24.20;24.40
24730;DHT22;12832;52.392;13.066;2023-02-28T16:01:37;24.20;24.20
24730;DHT22;12832;52.392;13.066;2023-02-28T16:04:10;24.20;24.20
24730;DHT22;12832;52.392;13.066;2023-02-28T16:06:42;24.20;24.30
24730;DHT22;12832;52.392;13.066;2023-02-28T16:09:13;24.20;24.20
24730;DHT22;12832;52.392;13.066;2023-02-28T16:11:42;24.20;24.10
24730;DHT22;12832;52.392;13.066;2023-02-28T16:14:15;24.20;23.80
24730;DHT22;12832;52.392;13.066;2023-02-28T16:16:50;24.20;23.70
24730;DHT22;12832;52.392;13.066;2023-02-28T16:19:18;24.20;23.50
24730;DHT22;12832;52.392;13.066;2023-02-28T16:21:45;24.20;23.40
24730;DHT22;12832;52.392;13.066;2023-02-28T16:24:11;24.20;23.40
24730;DHT22;12832;52.392;13.066;2023-02-28T16:26:44;24.20;23.40
24730;DHT22;12832;52.392;13.066;2023-02-28T16:29:16;24.20;23.40
24730;DHT22;12832;52.392;13.066;2023-02-28T16:31:46;24.10;23.40
24730;DHT22;12832;52.392;13.066;2023-02-28T16:34:12;24.10;23.30
24730;DHT22;12832;52.392;13.066;2023-02-28T16:36:38;24.10;23.30
24730;DHT22;12832;52.392;13.066;2023-02-28T16:39:05;24.20;23.30
24730;DHT22;12832;52.392;13.066;2023-02-28T16:41:33;24.20;23.20
24730;DHT22;12832;52.392;13.066;2023-02-28T16:44:00;24.20;23.20
24730;DHT22;12832;52.392;13.066;2023-02-28T16:46:31;24.20;23.20
24730;DHT22;12832;52.392;13.066;2023-02-28T16:48:59;24.10;23.20
24730;DHT22;12832;52.392;13.066;2023-02-28T16:51:25;24.10;23.30
24730;DHT22;12832;52.392;13.066;2023-02-28T16:53:51;24.10;23.30
24730;DHT22;12832;52.392;13.066;2023-02-28T16:56:20;24.10;23.20
24730;DHT22;12832;52.392;13.066;2023-02-28T16:58:48;24.10;23.20
24730;DHT22;12832;52.392;13.066;2023-02-28T17:01:15;24.20;23.20
24730;DHT22;12832;52.392;13.066;2023-02-28T17:03:42;24.10;23.20
24730;DHT22;12832;52.392;13.066;2023-02-28T17:06:20;24.10;23.10
24730;DHT22;12832;52.392;13.066;2023-02-28T17:08:49;24.10;23.10
24730;DHT22;12832;52.392;13.066;2023-02-28T17:11:15;24.10;23.20
24730;DHT22;12832;52.392;13.066;2023-02-28T17:13:42;24.10;23.20
24730;DHT22;12832;52.392;13.066;2023-02-28T17:18:44;24.10;23.10
24730;DHT22;12832;52.392;13.066;2023-02-28T17:21:14;24.10;23.10
24730;DHT22;12832;52.392;13.066;2023-02-28T17:23:41;24.10;23.10
24730;DHT22;12832;52.392;13.066;2023-02-28T17:26:17;24.10;23.10
24730;DHT22;12832;52.392;13.066;2023-02-28T17:28:48;24.10;23.20
24730;DHT22;12832;52.392;13.066;2023-02-28T17:31:15;24.10;23.20
24730;DHT22;12832;52.392;13.066;2023-02-28T17:33:41;24.10;23.20